sensor_id;sensor_type;location;lat;lon;timestamp;P1;durP1;ratioP1;P2;durP2;ratioP2
11960;SDS011;6040;49.358;11.140;2022-08-21T00:02:14;6.60;;;4.80;;
11960;SDS011;6040;49.358;11.140;2022-08-21T00:04:42;6.53;;;5.23;;
11960;SDS011;6040;49.358;11.140;2022-08-21T00:07:10;7.37;;;5.27;;
11960;SDS011;6040;49.358;11.140;2022-08-21T00:09:37;6.57;;;4.63;;
11960;SDS011;6040;49.358;11.140;2022-08-21T00:12:04;5.37;;;4.57;;
11960;SDS011;6040;49.358;11.140;2022-08-21T00:14:32;6.70;;;4.93;;
11960;SDS011;6040;49.358;11.140;2022-08-21T00:17:00;5.97;;;5.40;;
11960;SDS011;6040;49.358;11.140;2022-08-21T00:19:28;5.87;;;4.87;;
11960;SDS011;6040;49.358;11.140;2022-08-21T00:21:56;7.43;;;5.40;;
11960;SDS011;6040;49.358;11.140;2022-08-21T00:24:23;7.70;;;5.00;;
11960;SDS011;6040;49.358;11.140;2022-08-21T00:26:51;5.17;;;4.77;;
11960;SDS011;6040;49.358;11.140;2022-08-21T00:29:19;9.33;;;4.93;;
11960;SDS011;6040;49.358;11.140;2022-08-21T00:31:46;5.70;;;5.20;;
11960;SDS011;6040;49.358;11.140;2022-08-21T00:34:13;7.30;;;5.03;;
11960;SDS011;6040;49.358;11.140;2022-08-21T00:36:41;5.80;;;5.30;;
11960;SDS011;6040;49.358;11.140;2022-08-21T00:39:09;6.83;;;5.17;;
11960;SDS011;6040;49.358;11.140;2022-08-21T00:41:37;5.70;;;5.07;;
11960;SDS011;6040;49.358;11.140;2022-08-21T00:44:05;6.20;;;4.90;;
11960;SDS011;6040;49.358;11.140;2022-08-21T00:46:34;5.97;;;5.10;;
11960;SDS011;6040;49.358;11.140;2022-08-21T00:49:01;5.30;;;4.87;;
11960;SDS011;6040;49.358;11.140;2022-08-21T00:51:37;5.53;;;4.93;;
11960;SDS011;6040;49.358;11.140;2022-08-21T00:54:09;5.30;;;4.80;;
11960;SDS011;6040;49.358;11.140;2022-08-21T00:56:37;5.83;;;5.23;;
11960;SDS011;6040;49.358;11.140;2022-08-21T00:59:04;5.17;;;4.70;;
11960;SDS011;6040;49.358;11.140;2022-08-21T01:01:32;5.00;;;4.57;;
11960;SDS011;6040;49.358;11.140;2022-08-21T01:03:59;5.83;;;5.10;;
11960;SDS011;6040;49.358;11.140;2022-08-21T01:06:26;5.60;;;5.10;;
11960;SDS011;6040;49.358;11.140;2022-08-21T01:08:53;5.23;;;4.73;;
11960;SDS011;6040;49.358;11.140;2022-08-21T01:11:21;5.40;;;4.90;;
11960;SDS011;6040;49.358;11.140;2022-08-21T01:13:48;5.93;;;4.97;;
11960;SDS011;6040;49.358;11.140;2022-08-21T01:16:17;5.30;;;4.80;;
11960;SDS011;6040;49.358;11.140;2022-08-21T01:18:46;6.80;;;4.83;;
11960;SDS011;6040;49.358;11.140;2022-08-21T01:21:17;5.50;;;4.83;;
11960;SDS011;6040;49.358;11.140;2022-08-21T01:23:47;5.90;;;5.30;;
11960;SDS011;6040;49.358;11.140;2022-08-21T01:26:16;7.13;;;5.20;;
11960;SDS011;6040;49.358;11.140;2022-08-21T01:28:47;5.83;;;5.00;;
11960;SDS011;6040;49.358;11.140;2022-08-21T01:31:18;4.87;;;4.47;;
11960;SDS011;6040;49.358;11.140;2022-08-21T01:33:48;5.40;;;4.90;;
11960;SDS011;6040;49.358;11.140;2022-08-21T01:36:16;5.73;;;5.23;;
11960;SDS011;6040;49.358;11.140;2022-08-21T01:38:44;6.47;;;5.30;;
11960;SDS011;6040;49.358;11.140;2022-08-21T01:41:12;5.60;;;4.57;;
11960;SDS011;6040;49.358;11.140;2022-08-21T01:43:39;6.03;;;4.90;;
11960;SDS011;6040;49.358;11.140;2022-08-21T01:46:06;9.20;;;5.00;;
11960;SDS011;6040;49.358;11.140;2022-08-21T01:48:34;5.60;;;5.10;;
11960;SDS011;6040;49.358;11.140;2022-08-21T01:51:01;5.60;;;4.70;;
11960;SDS011;6040;49.358;11.140;2022-08-21T01:53:30;7.07;;;4.73;;
11960;SDS011;6040;49.358;11.140;2022-08-21T01:55:58;6.67;;;4.73;;
11960;SDS011;6040;49.358;11.140;2022-08-21T01:58:25;5.47;;;4.97;;
11960;SDS011;6040;49.358;11.140;2022-08-21T02:00:52;5.10;;;4.70;;
11960;SDS011;6040;49.358;11.140;2022-08-21T02:03:20;5.40;;;4.90;;
11960;SDS011;6040;49.358;11.140;2022-08-21T02:05:46;4.93;;;4.47;;
11960;SDS011;6040;49.358;11.140;2022-08-21T02:08:13;7.40;;;5.03;;
11960;SDS011;6040;49.358;11.140;2022-08-21T02:10:42;5.47;;;4.80;;
11960;SDS011;6040;49.358;11.140;2022-08-21T02:13:09;5.30;;;4.87;;
11960;SDS011;6040;49.358;11.140;2022-08-21T02:15:35;6.03;;;4.70;;
11960;SDS011;6040;49.358;11.140;2022-08-21T02:18:02;4.90;;;4.50;;
11960;SDS011;6040;49.358;11.140;2022-08-21T02:20:33;5.13;;;4.63;;
11960;SDS011;6040;49.358;11.140;2022-08-21T02:23:02;5.17;;;4.67;;
11960;SDS011;6040;49.358;11.140;2022-08-21T02:25:30;5.10;;;3.87;;
11960;SDS011;6040;49.358;11.140;2022-08-21T02:27:59;5.20;;;4.77;;
11960;SDS011;6040;49.358;11.140;2022-08-21T02:30:31;6.83;;;4.37;;
11960;SDS011;6040;49.358;11.140;2022-08-21T02:33:03;4.90;;;4.40;;
11960;SDS011;6040;49.358;11.140;2022-08-21T02:35:30;4.77;;;4.37;;
11960;SDS011;6040;49.358;11.140;2022-08-21T02:37:58;10.70;;;5.30;;
11960;SDS011;6040;49.358;11.140;2022-08-21T02:40:28;6.07;;;5.47;;
11960;SDS011;6040;49.358;11.140;2022-08-21T02:42:56;13.63;;;6.00;;
11960;SDS011;6040;49.358;11.140;2022-08-21T02:45:24;11.23;;;6.50;;
11960;SDS011;6040;49.358;11.140;2022-08-21T02:47:54;16.80;;;6.50;;
11960;SDS011;6040;49.358;11.140;2022-08-21T02:50:24;10.73;;;7.23;;
11960;SDS011;6040;49.358;11.140;2022-08-21T02:52:52;20.67;;;6.67;;
11960;SDS011;6040;49.358;11.140;2022-08-21T02:55:19;10.90;;;6.47;;
11960;SDS011;6040;49.358;11.140;2022-08-21T02:57:47;14.43;;;6.77;;
11960;SDS011;6040;49.358;11.140;2022-08-21T03:00:14;15.90;;;7.20;;
11960;SDS011;6040;49.358;11.140;2022-08-21T03:02:43;10.00;;;7.07;;
11960;SDS011;6040;49.358;11.140;2022-08-21T03:05:12;10.17;;;6.50;;
11960;SDS011;6040;49.358;11.140;2022-08-21T03:07:40;11.00;;;6.87;;
11960;SDS011;6040;49.358;11.140;2022-08-21T03:10:07;8.10;;;6.40;;
11960;SDS011;6040;49.358;11.140;2022-08-21T03:12:35;16.30;;;6.80;;
11960;SDS011;6040;49.358;11.140;2022-08-21T03:15:02;11.63;;;6.97;;
11960;SDS011;6040;49.358;11.140;2022-08-21T03:17:31;9.67;;;6.33;;
11960;SDS011;6040;49.358;11.140;2022-08-21T03:20:00;18.93;;;7.30;;
11960;SDS011;6040;49.358;11.140;2022-08-21T03:22:28;12.30;;;7.03;;
11960;SDS011;6040;49.358;11.140;2022-08-21T03:24:54;16.07;;;8.00;;
11960;SDS011;6040;49.358;11.140;2022-08-21T03:27:22;9.10;;;7.33;;
11960;SDS011;6040;49.358;11.140;2022-08-21T03:29:51;8.80;;;7.57;;
11960;SDS011;6040;49.358;11.140;2022-08-21T03:32:18;12.67;;;7.07;;
11960;SDS011;6040;49.358;11.140;2022-08-21T03:34:45;17.43;;;8.17;;
11960;SDS011;6040;49.358;11.140;2022-08-21T03:37:14;21.63;;;7.93;;
11960;SDS011;6040;49.358;11.140;2022-08-21T03:39:42;15.87;;;7.83;;
11960;SDS011;6040;49.358;11.140;2022-08-21T03:42:09;15.37;;;8.50;;
11960;SDS011;6040;49.358;11.140;2022-08-21T03:44:37;25.43;;;8.93;;
11960;SDS011;6040;49.358;11.140;2022-08-21T03:47:04;13.17;;;8.17;;
11960;SDS011;6040;49.358;11.140;2022-08-21T03:49:32;15.63;;;9.07;;
11960;SDS011;6040;49.358;11.140;2022-08-21T03:51:59;11.33;;;7.40;;
11960;SDS011;6040;49.358;11.140;2022-08-21T03:54:27;14.70;;;7.97;;
11960;SDS011;6040;49.358;11.140;2022-08-21T03:56:54;44.43;;;8.47;;
11960;SDS011;6040;49.358;11.140;2022-08-21T03:59:22;14.97;;;7.07;;
11960;SDS011;6040;49.358;11.140;2022-08-21T04:01:52;28.83;;;8.30;;
11960;SDS011;6040;49.358;11.140;2022-08-21T04:04:20;41.33;;;7.63;;
11960;SDS011;6040;49.358;11.140;2022-08-21T04:06:47;38.07;;;8.37;;
11960;SDS011;6040;49.358;11.140;2022-08-21T04:09:14;49.83;;;8.20;;
11960;SDS011;6040;49.358;11.140;2022-08-21T04:11:43;41.40;;;8.67;;
11960;SDS011;6040;49.358;11.140;2022-08-21T04:14:11;12.60;;;7.67;;
11960;SDS011;6040;49.358;11.140;2022-08-21T04:16:38;10.63;;;8.80;;
11960;SDS011;6040;49.358;11.140;2022-08-21T04:19:05;38.00;;;9.93;;
11960;SDS011;6040;49.358;11.140;2022-08-21T04:21:32;40.53;;;9.60;;
11960;SDS011;6040;49.358;11.140;2022-08-21T04:24:00;32.67;;;9.30;;
11960;SDS011;6040;49.358;11.140;2022-08-21T04:26:26;48.07;;;10.00;;
11960;SDS011;6040;49.358;11.140;2022-08-21T04:28:55;49.27;;;9.47;;
11960;SDS011;6040;49.358;11.140;2022-08-21T04:31:22;135.80;;;10.23;;
11960;SDS011;6040;49.358;11.140;2022-08-21T04:33:49;77.37;;;10.60;;
11960;SDS011;6040;49.358;11.140;2022-08-21T04:36:16;99.77;;;10.60;;
11960;SDS011;6040;49.358;11.140;2022-08-21T04:38:43;22.07;;;10.30;;
11960;SDS011;6040;49.358;11.140;2022-08-21T04:41:10;18.67;;;8.53;;
11960;SDS011;6040;49.358;11.140;2022-08-21T04:43:38;19.53;;;8.53;;
11960;SDS011;6040;49.358;11.140;2022-08-21T04:46:06;29.47;;;8.73;;
11960;SDS011;6040;49.358;11.140;2022-08-21T04:48:33;26.33;;;8.57;;
11960;SDS011;6040;49.358;11.140;2022-08-21T04:51:01;45.87;;;9.17;;
11960;SDS011;6040;49.358;11.140;2022-08-21T04:53:34;17.80;;;8.80;;
11960;SDS011;6040;49.358;11.140;2022-08-21T04:56:04;69.10;;;9.47;;
11960;SDS011;6040;49.358;11.140;2022-08-21T04:58:34;60.67;;;9.30;;
11960;SDS011;6040;49.358;11.140;2022-08-21T05:01:03;71.70;;;9.97;;
11960;SDS011;6040;49.358;11.140;2022-08-21T05:03:34;27.13;;;9.47;;
11960;SDS011;6040;49.358;11.140;2022-08-21T05:06:02;16.70;;;9.50;;
11960;SDS011;6040;49.358;11.140;2022-08-21T05:08:31;11.47;;;8.90;;
11960;SDS011;6040;49.358;11.140;2022-08-21T05:10:58;9.07;;;8.27;;
11960;SDS011;6040;49.358;11.140;2022-08-21T05:13:25;9.00;;;7.27;;
11960;SDS011;6040;49.358;11.140;2022-08-21T05:15:52;39.93;;;8.63;;
11960;SDS011;6040;49.358;11.140;2022-08-21T05:18:20;9.20;;;8.23;;
11960;SDS011;6040;49.358;11.140;2022-08-21T05:20:49;12.13;;;7.63;;
11960;SDS011;6040;49.358;11.140;2022-08-21T05:23:15;11.90;;;9.37;;
11960;SDS011;6040;49.358;11.140;2022-08-21T05:25:43;16.90;;;8.27;;
11960;SDS011;6040;49.358;11.140;2022-08-21T05:28:10;9.47;;;8.53;;
11960;SDS011;6040;49.358;11.140;2022-08-21T05:30:37;18.63;;;9.40;;
11960;SDS011;6040;49.358;11.140;2022-08-21T05:33:06;14.47;;;8.43;;
11960;SDS011;6040;49.358;11.140;2022-08-21T05:35:33;11.13;;;9.20;;
11960;SDS011;6040;49.358;11.140;2022-08-21T05:38:02;9.43;;;8.53;;
11960;SDS011;6040;49.358;11.140;2022-08-21T05:40:29;50.73;;;10.03;;
11960;SDS011;6040;49.358;11.140;2022-08-21T05:42:57;12.83;;;8.37;;
11960;SDS011;6040;49.358;11.140;2022-08-21T05:45:25;20.10;;;8.40;;
11960;SDS011;6040;49.358;11.140;2022-08-21T05:47:53;10.13;;;8.63;;
11960;SDS011;6040;49.358;11.140;2022-08-21T05:50:20;15.03;;;8.67;;
11960;SDS011;6040;49.358;11.140;2022-08-21T05:52:47;12.70;;;8.03;;
11960;SDS011;6040;49.358;11.140;2022-08-21T05:55:15;16.50;;;8.67;;
11960;SDS011;6040;49.358;11.140;2022-08-21T05:57:42;22.87;;;9.00;;
11960;SDS011;6040;49.358;11.140;2022-08-21T06:00:10;9.67;;;8.70;;
11960;SDS011;6040;49.358;11.140;2022-08-21T06:02:38;10.10;;;9.10;;
11960;SDS011;6040;49.358;11.140;2022-08-21T06:05:05;11.33;;;9.57;;
11960;SDS011;6040;49.358;11.140;2022-08-21T06:07:33;10.93;;;9.83;;
11960;SDS011;6040;49.358;11.140;2022-08-21T06:09:59;10.23;;;9.10;;
11960;SDS011;6040;49.358;11.140;2022-08-21T06:12:28;9.37;;;8.43;;
11960;SDS011;6040;49.358;11.140;2022-08-21T06:14:54;11.57;;;8.30;;
11960;SDS011;6040;49.358;11.140;2022-08-21T06:17:21;9.47;;;8.57;;
11960;SDS011;6040;49.358;11.140;2022-08-21T06:19:50;10.30;;;9.30;;
11960;SDS011;6040;49.358;11.140;2022-08-21T06:22:18;13.23;;;9.50;;
11960;SDS011;6040;49.358;11.140;2022-08-21T06:24:45;10.60;;;9.50;;
11960;SDS011;6040;49.358;11.140;2022-08-21T06:27:12;15.63;;;10.53;;
11960;SDS011;6040;49.358;11.140;2022-08-21T06:29:41;12.13;;;10.83;;
11960;SDS011;6040;49.358;11.140;2022-08-21T06:32:10;10.70;;;9.60;;
11960;SDS011;6040;49.358;11.140;2022-08-21T06:34:37;12.10;;;9.93;;
11960;SDS011;6040;49.358;11.140;2022-08-21T06:37:05;10.97;;;9.87;;
11960;SDS011;6040;49.358;11.140;2022-08-21T06:39:32;10.77;;;9.60;;
11960;SDS011;6040;49.358;11.140;2022-08-21T06:41:59;11.37;;;9.47;;
11960;SDS011;6040;49.358;11.140;2022-08-21T06:44:26;10.90;;;8.67;;
11960;SDS011;6040;49.358;11.140;2022-08-21T06:46:55;22.23;;;11.43;;
11960;SDS011;6040;49.358;11.140;2022-08-21T06:49:22;12.17;;;10.37;;
11960;SDS011;6040;49.358;11.140;2022-08-21T06:51:48;11.60;;;10.43;;
11960;SDS011;6040;49.358;11.140;2022-08-21T06:54:15;11.53;;;10.33;;
11960;SDS011;6040;49.358;11.140;2022-08-21T06:56:42;12.30;;;11.00;;
11960;SDS011;6040;49.358;11.140;2022-08-21T06:59:09;11.80;;;10.60;;
11960;SDS011;6040;49.358;11.140;2022-08-21T07:01:36;12.37;;;11.00;;
11960;SDS011;6040;49.358;11.140;2022-08-21T07:04:05;12.33;;;10.87;;
11960;SDS011;6040;49.358;11.140;2022-08-21T07:06:32;13.20;;;11.90;;
11960;SDS011;6040;49.358;11.140;2022-08-21T07:08:59;11.60;;;10.40;;
11960;SDS011;6040;49.358;11.140;2022-08-21T07:11:27;12.07;;;10.83;;
11960;SDS011;6040;49.358;11.140;2022-08-21T07:13:54;14.40;;;11.20;;
11960;SDS011;6040;49.358;11.140;2022-08-21T07:16:22;13.90;;;10.93;;
11960;SDS011;6040;49.358;11.140;2022-08-21T07:18:49;12.00;;;10.80;;
11960;SDS011;6040;49.358;11.140;2022-08-21T07:21:17;11.47;;;10.27;;
11960;SDS011;6040;49.358;11.140;2022-08-21T07:23:45;11.60;;;10.40;;
11960;SDS011;6040;49.358;11.140;2022-08-21T07:26:14;12.43;;;10.70;;
11960;SDS011;6040;49.358;11.140;2022-08-21T07:28:42;11.60;;;10.50;;
11960;SDS011;6040;49.358;11.140;2022-08-21T07:31:10;12.07;;;10.87;;
11960;SDS011;6040;49.358;11.140;2022-08-21T07:33:39;12.73;;;11.50;;
11960;SDS011;6040;49.358;11.140;2022-08-21T07:36:06;11.20;;;10.03;;
11960;SDS011;6040;49.358;11.140;2022-08-21T07:38:35;12.07;;;10.77;;
11960;SDS011;6040;49.358;11.140;2022-08-21T07:41:04;11.20;;;10.10;;
11960;SDS011;6040;49.358;11.140;2022-08-21T07:43:38;11.47;;;10.27;;
11960;SDS011;6040;49.358;11.140;2022-08-21T07:46:05;12.67;;;11.23;;
11960;SDS011;6040;49.358;11.140;2022-08-21T07:48:32;12.03;;;10.73;;
11960;SDS011;6040;49.358;11.140;2022-08-21T07:50:59;12.37;;;11.10;;
11960;SDS011;6040;49.358;11.140;2022-08-21T07:53:31;13.63;;;12.33;;
11960;SDS011;6040;49.358;11.140;2022-08-21T07:55:59;14.20;;;12.70;;
11960;SDS011;6040;49.358;11.140;2022-08-21T07:58:26;14.33;;;12.83;;
11960;SDS011;6040;49.358;11.140;2022-08-21T08:00:53;12.37;;;11.17;;
11960;SDS011;6040;49.358;11.140;2022-08-21T08:03:20;11.93;;;10.83;;
11960;SDS011;6040;49.358;11.140;2022-08-21T08:05:47;12.27;;;11.10;;
11960;SDS011;6040;49.358;11.140;2022-08-21T08:08:14;13.33;;;11.40;;
11960;SDS011;6040;49.358;11.140;2022-08-21T08:10:41;12.17;;;11.07;;
11960;SDS011;6040;49.358;11.140;2022-08-21T08:13:10;11.53;;;10.47;;
11960;SDS011;6040;49.358;11.140;2022-08-21T08:15:37;12.27;;;11.17;;
11960;SDS011;6040;49.358;11.140;2022-08-21T08:18:04;12.93;;;11.70;;
11960;SDS011;6040;49.358;11.140;2022-08-21T08:20:31;12.93;;;11.73;;
11960;SDS011;6040;49.358;11.140;2022-08-21T08:22:58;14.00;;;12.60;;
11960;SDS011;6040;49.358;11.140;2022-08-21T08:25:25;12.53;;;11.23;;
11960;SDS011;6040;49.358;11.140;2022-08-21T08:27:53;12.83;;;11.53;;
11960;SDS011;6040;49.358;11.140;2022-08-21T08:30:22;12.67;;;11.47;;
11960;SDS011;6040;49.358;11.140;2022-08-21T08:32:49;11.70;;;10.60;;
11960;SDS011;6040;49.358;11.140;2022-08-21T08:35:16;14.33;;;12.93;;
11960;SDS011;6040;49.358;11.140;2022-08-21T08:37:43;12.93;;;11.63;;
11960;SDS011;6040;49.358;11.140;2022-08-21T08:40:12;11.93;;;10.83;;
11960;SDS011;6040;49.358;11.140;2022-08-21T08:42:43;15.37;;;13.80;;
11960;SDS011;6040;49.358;11.140;2022-08-21T08:45:13;14.53;;;13.13;;
11960;SDS011;6040;49.358;11.140;2022-08-21T08:47:45;14.90;;;13.50;;
11960;SDS011;6040;49.358;11.140;2022-08-21T08:50:17;14.43;;;13.03;;
11960;SDS011;6040;49.358;11.140;2022-08-21T08:52:48;13.43;;;12.13;;
11960;SDS011;6040;49.358;11.140;2022-08-21T08:55:19;13.23;;;12.07;;
11960;SDS011;6040;49.358;11.140;2022-08-21T08:57:58;12.67;;;11.47;;
11960;SDS011;6040;49.358;11.140;2022-08-21T09:00:27;12.47;;;11.37;;
11960;SDS011;6040;49.358;11.140;2022-08-21T09:02:59;12.30;;;11.20;;
11960;SDS011;6040;49.358;11.140;2022-08-21T09:05:28;12.63;;;11.53;;
11960;SDS011;6040;49.358;11.140;2022-08-21T09:11:05;13.20;;;11.90;;
11960;SDS011;6040;49.358;11.140;2022-08-21T09:13:39;13.30;;;12.10;;
11960;SDS011;6040;49.358;11.140;2022-08-21T09:16:17;10.90;;;9.90;;
11960;SDS011;6040;49.358;11.140;2022-08-21T09:18:55;12.67;;;11.43;;
11960;SDS011;6040;49.358;11.140;2022-08-21T09:21:35;11.53;;;10.53;;
11960;SDS011;6040;49.358;11.140;2022-08-21T09:24:18;12.33;;;11.27;;
11960;SDS011;6040;49.358;11.140;2022-08-21T09:26:54;10.43;;;9.40;;
11960;SDS011;6040;49.358;11.140;2022-08-21T09:29:27;12.40;;;11.30;;
11960;SDS011;6040;49.358;11.140;2022-08-21T09:31:59;14.03;;;12.33;;
11960;SDS011;6040;49.358;11.140;2022-08-21T09:34:28;12.70;;;11.50;;
11960;SDS011;6040;49.358;11.140;2022-08-21T09:36:56;11.67;;;10.67;;
11960;SDS011;6040;49.358;11.140;2022-08-21T09:39:25;10.57;;;9.57;;
11960;SDS011;6040;49.358;11.140;2022-08-21T09:41:57;10.70;;;9.70;;
11960;SDS011;6040;49.358;11.140;2022-08-21T09:44:26;11.10;;;10.10;;
11960;SDS011;6040;49.358;11.140;2022-08-21T09:46:55;10.73;;;9.83;;
11960;SDS011;6040;49.358;11.140;2022-08-21T09:49:30;10.43;;;9.43;;
11960;SDS011;6040;49.358;11.140;2022-08-21T09:51:59;16.40;;;12.57;;
11960;SDS011;6040;49.358;11.140;2022-08-21T09:54:29;11.53;;;10.30;;
11960;SDS011;6040;49.358;11.140;2022-08-21T09:56:59;9.13;;;8.33;;
11960;SDS011;6040;49.358;11.140;2022-08-21T09:59:47;9.90;;;8.90;;
11960;SDS011;6040;49.358;11.140;2022-08-21T10:02:26;10.37;;;9.30;;
11960;SDS011;6040;49.358;11.140;2022-08-21T10:04:57;9.50;;;8.60;;
11960;SDS011;6040;49.358;11.140;2022-08-21T10:07:27;7.93;;;7.17;;
11960;SDS011;6040;49.358;11.140;2022-08-21T10:10:02;7.80;;;7.20;;
11960;SDS011;6040;49.358;11.140;2022-08-21T10:12:33;7.93;;;7.23;;
11960;SDS011;6040;49.358;11.140;2022-08-21T10:15:13;9.70;;;8.80;;
11960;SDS011;6040;49.358;11.140;2022-08-21T10:17:48;8.03;;;7.33;;
11960;SDS011;6040;49.358;11.140;2022-08-21T10:20:28;7.00;;;6.30;;
11960;SDS011;6040;49.358;11.140;2022-08-21T10:23:03;7.40;;;6.70;;
11960;SDS011;6040;49.358;11.140;2022-08-21T10:25:40;7.27;;;6.63;;
11960;SDS011;6040;49.358;11.140;2022-08-21T10:28:12;7.32;;;6.57;;
11960;SDS011;6040;49.358;11.140;2022-08-21T10:30:49;7.05;;;6.50;;
11960;SDS011;6040;49.358;11.140;2022-08-21T10:33:23;6.43;;;5.93;;
11960;SDS011;6040;49.358;11.140;2022-08-21T10:36:06;5.35;;;4.93;;
11960;SDS011;6040;49.358;11.140;2022-08-21T10:41:31;5.90;;;5.40;;
11960;SDS011;6040;49.358;11.140;2022-08-21T10:44:13;7.30;;;5.47;;
11960;SDS011;6040;49.358;11.140;2022-08-21T10:46:51;4.78;;;4.38;;
11960;SDS011;6040;49.358;11.140;2022-08-21T10:49:26;6.22;;;5.65;;
11960;SDS011;6040;49.358;11.140;2022-08-21T10:52:21;5.15;;;4.75;;
11960;SDS011;6040;49.358;11.140;2022-08-21T10:55:08;4.70;;;4.30;;
11960;SDS011;6040;49.358;11.140;2022-08-21T10:57:40;4.85;;;4.25;;
11960;SDS011;6040;49.358;11.140;2022-08-21T11:00:11;4.53;;;4.13;;
11960;SDS011;6040;49.358;11.140;2022-08-21T11:02:42;4.50;;;4.13;;
11960;SDS011;6040;49.358;11.140;2022-08-21T11:05:16;4.53;;;4.18;;
11960;SDS011;6040;49.358;11.140;2022-08-21T11:07:51;4.88;;;4.47;;
11960;SDS011;6040;49.358;11.140;2022-08-21T11:10:22;4.72;;;4.32;;
11960;SDS011;6040;49.358;11.140;2022-08-21T11:12:54;4.55;;;4.15;;
11960;SDS011;6040;49.358;11.140;2022-08-21T11:15:36;3.95;;;3.65;;
11960;SDS011;6040;49.358;11.140;2022-08-21T11:18:15;4.50;;;4.20;;
11960;SDS011;6040;49.358;11.140;2022-08-21T11:20:49;3.88;;;3.58;;
11960;SDS011;6040;49.358;11.140;2022-08-21T11:23:25;5.78;;;5.22;;
11960;SDS011;6040;49.358;11.140;2022-08-21T11:26:00;4.30;;;3.90;;
11960;SDS011;6040;49.358;11.140;2022-08-21T11:28:31;5.65;;;4.05;;
11960;SDS011;6040;49.358;11.140;2022-08-21T11:31:04;10.07;;;9.02;;
11960;SDS011;6040;49.358;11.140;2022-08-21T11:33:44;5.63;;;5.05;;
11960;SDS011;6040;49.358;11.140;2022-08-21T11:36:23;5.28;;;4.35;;
11960;SDS011;6040;49.358;11.140;2022-08-21T11:39:00;6.07;;;3.97;;
11960;SDS011;6040;49.358;11.140;2022-08-21T11:41:34;4.35;;;3.80;;
11960;SDS011;6040;49.358;11.140;2022-08-21T11:44:08;5.05;;;3.90;;
11960;SDS011;6040;49.358;11.140;2022-08-21T11:46:46;4.05;;;3.75;;
11960;SDS011;6040;49.358;11.140;2022-08-21T11:49:27;4.03;;;3.72;;
11960;SDS011;6040;49.358;11.140;2022-08-21T11:52:10;3.70;;;3.40;;
11960;SDS011;6040;49.358;11.140;2022-08-21T11:54:46;3.45;;;3.15;;
11960;SDS011;6040;49.358;11.140;2022-08-21T11:57:20;4.05;;;3.65;;
11960;SDS011;6040;49.358;11.140;2022-08-21T11:59:51;4.18;;;3.83;;
11960;SDS011;6040;49.358;11.140;2022-08-21T12:02:22;4.28;;;3.97;;
11960;SDS011;6040;49.358;11.140;2022-08-21T12:04:55;3.97;;;3.67;;
11960;SDS011;6040;49.358;11.140;2022-08-21T12:07:30;4.10;;;3.80;;
11960;SDS011;6040;49.358;11.140;2022-08-21T12:10:02;3.45;;;3.20;;
11960;SDS011;6040;49.358;11.140;2022-08-21T12:12:31;3.95;;;3.55;;
11960;SDS011;6040;49.358;11.140;2022-08-21T12:15:14;4.35;;;3.90;;
11960;SDS011;6040;49.358;11.140;2022-08-21T12:20:56;3.35;;;3.15;;
11960;SDS011;6040;49.358;11.140;2022-08-21T12:23:26;3.60;;;3.30;;
11960;SDS011;6040;49.358;11.140;2022-08-21T12:26:09;3.83;;;3.53;;
11960;SDS011;6040;49.358;11.140;2022-08-21T12:28:43;3.55;;;3.33;;
11960;SDS011;6040;49.358;11.140;2022-08-21T12:31:17;3.85;;;3.30;;
11960;SDS011;6040;49.358;11.140;2022-08-21T12:33:49;3.58;;;3.28;;
11960;SDS011;6040;49.358;11.140;2022-08-21T12:36:20;3.40;;;3.10;;
11960;SDS011;6040;49.358;11.140;2022-08-21T12:38:51;4.72;;;3.28;;
11960;SDS011;6040;49.358;11.140;2022-08-21T12:41:24;4.25;;;2.92;;
11960;SDS011;6040;49.358;11.140;2022-08-21T12:43:56;3.78;;;3.47;;
11960;SDS011;6040;49.358;11.140;2022-08-21T12:46:27;3.30;;;3.00;;
11960;SDS011;6040;49.358;11.140;2022-08-21T12:49:00;3.55;;;3.25;;
11960;SDS011;6040;49.358;11.140;2022-08-21T12:51:34;3.65;;;2.80;;
11960;SDS011;6040;49.358;11.140;2022-08-21T12:54:10;3.28;;;3.03;;
11960;SDS011;6040;49.358;11.140;2022-08-21T12:56:56;3.38;;;3.08;;
11960;SDS011;6040;49.358;11.140;2022-08-21T12:59:24;3.15;;;2.95;;
11960;SDS011;6040;49.358;11.140;2022-08-21T13:01:52;3.13;;;2.92;;
11960;SDS011;6040;49.358;11.140;2022-08-21T13:04:21;3.40;;;3.10;;
11960;SDS011;6040;49.358;11.140;2022-08-21T13:06:53;3.38;;;3.17;;
11960;SDS011;6040;49.358;11.140;2022-08-21T13:09:23;3.20;;;2.90;;
11960;SDS011;6040;49.358;11.140;2022-08-21T13:11:55;3.30;;;3.00;;
11960;SDS011;6040;49.358;11.140;2022-08-21T13:14:24;3.20;;;2.90;;
11960;SDS011;6040;49.358;11.140;2022-08-21T13:16:56;3.33;;;3.03;;
11960;SDS011;6040;49.358;11.140;2022-08-21T13:19:24;3.35;;;2.95;;
11960;SDS011;6040;49.358;11.140;2022-08-21T13:21:52;3.08;;;2.88;;
11960;SDS011;6040;49.358;11.140;2022-08-21T13:24:20;5.18;;;3.40;;
11960;SDS011;6040;49.358;11.140;2022-08-21T13:26:49;3.10;;;2.88;;
11960;SDS011;6040;49.358;11.140;2022-08-21T13:29:18;3.50;;;3.30;;
11960;SDS011;6040;49.358;11.140;2022-08-21T13:31:48;3.78;;;3.47;;
11960;SDS011;6040;49.358;11.140;2022-08-21T13:34:17;4.60;;;3.30;;
11960;SDS011;6040;49.358;11.140;2022-08-21T13:36:45;3.65;;;3.30;;
11960;SDS011;6040;49.358;11.140;2022-08-21T13:39:15;3.17;;;2.90;;
11960;SDS011;6040;49.358;11.140;2022-08-21T13:41:44;6.78;;;3.22;;
11960;SDS011;6040;49.358;11.140;2022-08-21T13:44:14;3.50;;;3.20;;
11960;SDS011;6040;49.358;11.140;2022-08-21T13:46:45;6.18;;;3.33;;
11960;SDS011;6040;49.358;11.140;2022-08-21T13:49:14;3.85;;;3.55;;
11960;SDS011;6040;49.358;11.140;2022-08-21T13:51:43;3.60;;;3.20;;
11960;SDS011;6040;49.358;11.140;2022-08-21T13:54:24;3.67;;;3.13;;
11960;SDS011;6040;49.358;11.140;2022-08-21T13:56:53;3.50;;;3.20;;
11960;SDS011;6040;49.358;11.140;2022-08-21T13:59:25;3.40;;;3.10;;
11960;SDS011;6040;49.358;11.140;2022-08-21T14:01:56;3.45;;;3.15;;
11960;SDS011;6040;49.358;11.140;2022-08-21T14:04:26;6.40;;;3.33;;
11960;SDS011;6040;49.358;11.140;2022-08-21T14:06:59;3.30;;;3.10;;
11960;SDS011;6040;49.358;11.140;2022-08-21T14:09:27;3.28;;;2.97;;
11960;SDS011;6040;49.358;11.140;2022-08-21T14:11:57;3.70;;;3.40;;
11960;SDS011;6040;49.358;11.140;2022-08-21T14:14:26;3.33;;;3.13;;
11960;SDS011;6040;49.358;11.140;2022-08-21T14:16:59;4.10;;;3.70;;
11960;SDS011;6040;49.358;11.140;2022-08-21T14:19:35;3.60;;;3.28;;
11960;SDS011;6040;49.358;11.140;2022-08-21T14:24:58;3.55;;;3.35;;
11960;SDS011;6040;49.358;11.140;2022-08-21T14:27:28;3.65;;;3.35;;
11960;SDS011;6040;49.358;11.140;2022-08-21T14:30:00;3.50;;;3.20;;
11960;SDS011;6040;49.358;11.140;2022-08-21T14:32:37;3.50;;;3.20;;
11960;SDS011;6040;49.358;11.140;2022-08-21T14:35:06;5.40;;;3.30;;
11960;SDS011;6040;49.358;11.140;2022-08-21T14:37:34;3.63;;;3.33;;
11960;SDS011;6040;49.358;11.140;2022-08-21T14:40:01;3.90;;;3.50;;
11960;SDS011;6040;49.358;11.140;2022-08-21T14:42:29;3.60;;;3.30;;
11960;SDS011;6040;49.358;11.140;2022-08-21T14:45:00;3.47;;;3.28;;
11960;SDS011;6040;49.358;11.140;2022-08-21T14:54:55;3.50;;;3.15;;
11960;SDS011;6040;49.358;11.140;2022-08-21T14:57:32;3.10;;;2.90;;
11960;SDS011;6040;49.358;11.140;2022-08-21T15:00:05;3.63;;;2.90;;
11960;SDS011;6040;49.358;11.140;2022-08-21T15:05:32;3.78;;;3.13;;
11960;SDS011;6040;49.358;11.140;2022-08-21T15:08:04;3.03;;;2.67;;
11960;SDS011;6040;49.358;11.140;2022-08-21T15:10:32;3.17;;;2.97;;
11960;SDS011;6040;49.358;11.140;2022-08-21T15:13:01;3.17;;;2.97;;
11960;SDS011;6040;49.358;11.140;2022-08-21T15:15:28;3.28;;;2.97;;
11960;SDS011;6040;49.358;11.140;2022-08-21T15:18:01;3.13;;;2.90;;